FAMM

Mmabatho International Airport

Mafeking, South Africa
METAR FAMM 161400Z 32008KT 9999 FEW040 32/10 Q1019 NOSIG
Observed Flight Rules
Dec-16 @ 14:00 UTC (60 minutes ago) Visual Flight Rules
Wind Visibility Clouds
320° at 8 knots 10,000+ meters
  • Few at 4,000' AGL
Temperatures Readings
Current 32°C / 90°F
Dewpoint 10°C / 50°F
Humidity 26%
Altimeter 30.09" Hg
Pressure 1019 hPa
Elevation 1277
METAR FAMM 161400Z 32008KT 9999 FEW040 32/10 Q1019 NOSIG
Observed Flight Rules
Dec-16 @ 14:00 UTC
(60 minutes ago)
VFR
Wind Visibility
320° at 8 knots 10,000+ meters
Clouds
  • Few at 4,000' AGL
Temperature Dewpoint
32°C / 90°F 10°C / 50°F
Humidity Altimeter Pressure
26% 30.09" Hg 1019 hPa